Time;durP1;ratioP1;P1;durP2;ratioP2;P2;SDS_P1;SDS_P2;PMS_P1;PMS_P2;Temp;Humidity;BMP_temperature;BMP_pressure;BME280_temperature;BME280_humidity;BME280_pressure;Samples;Min_cycle;Max_cycle;Signal;HPM_P1;HPM_P2
2021/03/23 00:00:56;;;;;;;3.30;0.40;;;5.80;99.90;;;;;;5094271;28;20183;-66
2021/03/23 00:03:28;;;;;;;3.30;0.40;;;5.80;99.90;;;;;;5094449;28;20523;-66
2021/03/23 00:05:54;;;;;;;3.40;1.08;;;5.80;99.90;;;;;;5093677;28;20191;-67
2021/03/23 00:08:31;;;;;;;3.25;0.40;;;5.90;99.90;;;;;;5094513;28;20172;-67
2021/03/23 00:11:08;;;;;;;3.20;0.40;;;5.80;99.90;;;;;;5094121;28;20200;-66
2021/03/23 00:13:37;;;;;;;3.25;0.40;;;5.80;99.90;;;;;;5094273;28;20251;-66
2021/03/23 00:16:03;;;;;;;3.20;0.40;;;5.90;99.90;;;;;;5093271;28;20658;-67
2021/03/23 00:18:29;;;;;;;3.20;0.40;;;5.80;99.90;;;;;;5094311;28;20187;-66
2021/03/23 00:20:54;;;;;;;3.50;0.70;;;5.90;99.90;;;;;;5094020;28;20692;-66
2021/03/23 00:23:20;;;;;;;3.20;0.40;;;5.90;99.90;;;;;;5093083;28;20924;-65
2021/03/23 00:25:46;;;;;;;3.20;0.40;;;5.90;99.90;;;;;;5093458;28;20208;-67
2021/03/23 00:28:12;;;;;;;3.25;0.40;;;5.80;99.90;;;;;;5093784;28;20172;-66
2021/03/23 00:30:38;;;;;;;3.57;0.73;;;5.90;99.90;;;;;;5094051;28;20204;-67
2021/03/23 00:33:04;;;;;;;3.40;0.75;;;5.90;99.90;;;;;;5093801;28;20180;-67
2021/03/23 00:35:30;;;;;;;4.70;1.52;;;5.80;99.90;;;;;;5093697;28;20657;-66
2021/03/23 00:37:58;;;;;;;3.20;0.40;;;5.80;99.90;;;;;;5091964;28;20176;-67
2021/03/23 00:40:29;;;;;;;3.25;0.40;;;5.80;99.90;;;;;;5094024;28;20646;-67
2021/03/23 00:42:55;;;;;;;3.20;0.40;;;5.70;99.90;;;;;;5093737;28;20186;-66
2021/03/23 00:45:23;;;;;;;3.10;0.40;;;5.70;99.90;;;;;;5093373;28;20192;-68
2021/03/23 00:47:49;;;;;;;3.20;0.40;;;5.70;99.90;;;;;;5091346;28;20719;-66
2021/03/23 00:50:14;;;;;;;3.20;0.40;;;5.70;99.90;;;;;;5093428;28;20230;-66
2021/03/23 00:52:40;;;;;;;3.20;0.40;;;5.70;99.90;;;;;;5093863;28;20527;-66
2021/03/23 00:55:07;;;;;;;3.20;0.40;;;5.80;99.90;;;;;;5092966;28;20269;-67
2021/03/23 00:57:33;;;;;;;3.20;0.50;;;5.70;99.90;;;;;;5093624;28;20464;-68
2021/03/23 00:59:58;;;;;;;3.20;0.50;;;5.70;99.90;;;;;;5091906;28;20176;-67
2021/03/23 01:02:24;;;;;;;3.20;0.40;;;5.70;99.90;;;;;;5093320;28;20176;-66
2021/03/23 01:04:51;;;;;;;3.10;0.40;;;5.70;99.90;;;;;;5092912;28;20198;-67
2021/03/23 01:07:17;;;;;;;3.13;0.40;;;5.60;99.90;;;;;;5093552;28;20196;-67
2021/03/23 01:09:43;;;;;;;3.13;0.40;;;5.60;99.90;;;;;;5093221;28;20286;-66
2021/03/23 01:12:10;;;;;;;3.10;0.40;;;5.60;99.90;;;;;;5093500;28;20248;-67
2021/03/23 01:14:39;;;;;;;3.08;0.40;;;5.60;99.90;;;;;;5092829;28;20853;-66
2021/03/23 01:17:05;;;;;;;3.10;0.50;;;5.60;99.90;;;;;;5092673;28;20196;-66
2021/03/23 01:19:32;;;;;;;3.05;0.40;;;5.60;99.90;;;;;;5093249;28;20253;-67
2021/03/23 01:21:58;;;;;;;4.05;1.45;;;5.60;99.90;;;;;;5093383;28;20175;-66
2021/03/23 01:24:24;;;;;;;3.10;0.68;;;5.60;99.90;;;;;;5092392;28;20175;-66
2021/03/23 01:26:50;;;;;;;3.10;0.40;;;5.60;99.90;;;;;;5092904;28;20199;-65
2021/03/23 01:29:16;;;;;;;3.00;0.40;;;5.60;99.90;;;;;;5093382;28;20172;-66
2021/03/23 01:31:41;;;;;;;3.05;0.47;;;5.60;99.90;;;;;;5092613;28;20199;-68
2021/03/23 01:34:07;;;;;;;3.10;0.60;;;5.50;99.90;;;;;;5093005;28;20164;-67
2021/03/23 01:36:33;;;;;;;3.07;0.57;;;5.60;99.90;;;;;;5096770;28;20429;-66
2021/03/23 01:38:59;;;;;;;3.00;0.30;;;5.60;99.90;;;;;;5097163;28;20177;-67
2021/03/23 01:41:25;;;;;;;2.95;0.40;;;5.60;99.90;;;;;;5097164;28;20251;-66
2021/03/23 01:43:52;;;;;;;3.00;0.40;;;5.60;99.90;;;;;;5096819;28;20329;-67
2021/03/23 01:46:38;;;;;;;3.00;0.40;;;5.60;99.90;;;;;;5097100;28;20200;-65
2021/03/23 01:49:06;;;;;;;2.90;0.40;;;5.60;99.90;;;;;;5076824;28;20177;-66
2021/03/23 01:51:32;;;;;;;3.00;0.50;;;5.60;99.90;;;;;;5086856;28;20211;-67
2021/03/23 01:54:05;;;;;;;2.90;0.50;;;5.50;99.90;;;;;;5096295;28;20631;-66
2021/03/23 01:56:32;;;;;;;3.00;0.50;;;5.60;99.90;;;;;;5096969;28;20191;-67
2021/03/23 01:59:01;;;;;;;2.97;0.40;;;5.50;99.90;;;;;;5096376;28;20176;-67
2021/03/23 02:01:27;;;;;;;2.92;0.40;;;5.50;99.90;;;;;;5096507;28;20638;-65
2021/03/23 02:03:54;;;;;;;2.83;0.30;;;5.50;99.90;;;;;;5096232;28;20262;-65
2021/03/23 02:06:45;;;;;;;2.88;0.47;;;5.50;99.90;;;;;;5096783;28;20196;-65
2021/03/23 02:09:17;;;;;;;2.83;0.40;;;5.50;99.90;;;;;;5096463;28;20229;-67
2021/03/23 02:11:50;;;;;;;2.90;0.50;;;5.50;99.90;;;;;;5096847;28;20189;-65
2021/03/23 02:14:18;;;;;;;2.90;0.50;;;5.60;99.90;;;;;;5096147;28;20172;-66
2021/03/23 02:16:45;;;;;;;2.80;0.30;;;5.60;99.90;;;;;;5096627;28;20199;-67
2021/03/23 02:19:12;;;;;;;2.80;0.32;;;5.60;99.90;;;;;;5095817;28;20180;-66
2021/03/23 02:21:38;;;;;;;2.80;0.40;;;5.60;99.90;;;;;;5096553;28;20171;-66
2021/03/23 02:24:04;;;;;;;2.80;0.30;;;5.60;99.90;;;;;;5095947;28;20233;-66
2021/03/23 02:26:35;;;;;;;2.80;0.40;;;5.60;99.90;;;;;;5096462;28;20198;-66
2021/03/23 02:29:18;;;;;;;2.88;0.50;;;5.60;99.90;;;;;;5096307;28;20538;-68
2021/03/23 02:31:47;;;;;;;2.80;0.40;;;5.60;99.90;;;;;;5094886;28;20187;-66
2021/03/23 02:34:17;;;;;;;2.80;0.40;;;5.70;99.90;;;;;;5095814;28;20285;-66
2021/03/23 02:36:44;;;;;;;4.50;0.98;;;5.60;99.90;;;;;;5095951;28;20271;-67
2021/03/23 02:39:19;;;;;;;2.70;0.40;;;5.60;99.90;;;;;;5092784;28;20169;-66
2021/03/23 02:41:45;;;;;;;2.67;0.40;;;5.60;99.90;;;;;;5096554;28;20179;-65
2021/03/23 02:44:10;;;;;;;2.70;0.40;;;5.60;99.90;;;;;;5095608;28;20251;-65
2021/03/23 02:46:36;;;;;;;2.67;0.40;;;5.50;99.90;;;;;;5094561;28;20196;-66
2021/03/23 02:49:04;;;;;;;2.70;0.40;;;5.50;99.90;;;;;;5095972;28;20203;-65
2021/03/23 02:51:29;;;;;;;2.67;0.40;;;5.60;99.90;;;;;;5095919;28;20202;-67
2021/03/23 02:53:55;;;;;;;2.70;0.60;;;5.50;99.90;;;;;;5094812;28;20168;-66
2021/03/23 02:56:21;;;;;;;2.10;0.40;;;5.60;99.90;;;;;;5096693;28;20188;-65
2021/03/23 02:58:46;;;;;;;2.10;0.40;;;5.50;99.90;;;;;;5095432;28;20233;-65
2021/03/23 03:01:13;;;;;;;2.10;0.40;;;5.50;99.90;;;;;;5095728;28;20172;-67
2021/03/23 03:03:39;;;;;;;2.10;0.40;;;5.50;99.90;;;;;;5095235;28;20178;-66
2021/03/23 03:06:06;;;;;;;2.10;0.40;;;5.60;99.90;;;;;;5095342;28;20550;-67
2021/03/23 03:08:33;;;;;;;2.10;0.38;;;5.60;99.90;;;;;;5095059;28;20430;-67
2021/03/23 03:10:59;;;;;;;2.10;0.40;;;5.60;99.90;;;;;;5095757;28;20200;-66
2021/03/23 03:13:25;;;;;;;2.73;1.53;;;5.50;99.90;;;;;;5095327;28;20218;-66
2021/03/23 03:15:52;;;;;;;2.10;0.40;;;5.60;99.90;;;;;;5095018;28;20421;-67
2021/03/23 03:18:19;;;;;;;2.10;0.40;;;5.60;99.90;;;;;;5094431;28;20452;-65
2021/03/23 03:20:45;;;;;;;2.10;0.40;;;5.60;99.90;;;;;;5095489;28;20199;-67
2021/03/23 03:23:11;;;;;;;2.10;0.37;;;5.50;99.90;;;;;;5095060;28;20226;-65
2021/03/23 03:25:37;;;;;;;2.10;0.40;;;5.50;99.90;;;;;;5093723;28;20914;-66
2021/03/23 03:28:04;;;;;;;2.10;0.53;;;5.50;99.90;;;;;;5095099;28;20201;-65
2021/03/23 03:30:32;;;;;;;2.10;0.40;;;5.50;99.90;;;;;;5095258;28;20552;-65
2021/03/23 03:32:59;;;;;;;2.20;0.85;;;5.50;99.90;;;;;;5094420;28;20176;-66
2021/03/23 03:35:27;;;;;;;2.00;0.50;;;5.50;99.90;;;;;;5093287;28;20219;-65
2021/03/23 03:37:52;;;;;;;2.00;0.40;;;5.50;99.90;;;;;;5094592;28;20263;-66
2021/03/23 03:40:27;;;;;;;3.50;2.10;;;5.50;99.90;;;;;;5094553;28;20259;-65
2021/03/23 03:42:53;;;;;;;1.95;0.30;;;5.50;99.90;;;;;;5094899;28;20175;-66
2021/03/23 03:45:20;;;;;;;2.00;0.43;;;5.50;99.90;;;;;;5094404;28;20191;-66
2021/03/23 03:47:50;;;;;;;3.42;1.38;;;5.50;99.90;;;;;;5094500;28;20191;-66
2021/03/23 03:50:16;;;;;;;2.00;0.50;;;5.50;99.90;;;;;;5094599;28;20256;-66
2021/03/23 03:52:41;;;;;;;1.97;0.40;;;5.40;99.90;;;;;;5094446;28;20181;-67
2021/03/23 03:55:07;;;;;;;2.00;0.50;;;5.50;99.90;;;;;;5094192;28;20414;-67
2021/03/23 03:57:33;;;;;;;1.90;0.40;;;5.50;99.90;;;;;;5094111;28;20164;-67
2021/03/23 03:59:58;;;;;;;1.90;0.40;;;5.50;99.90;;;;;;5094411;28;20458;-67
2021/03/23 04:02:24;;;;;;;1.90;0.30;;;5.50;99.90;;;;;;5094196;28;20182;-66
2021/03/23 04:04:50;;;;;;;1.93;0.30;;;5.50;99.90;;;;;;5094100;28;20168;-67
2021/03/23 04:07:15;;;;;;;1.90;0.40;;;5.50;99.90;;;;;;5094220;28;20269;-66
2021/03/23 04:09:41;;;;;;;1.90;0.30;;;5.50;99.90;;;;;;5094331;28;20199;-65
2021/03/23 04:12:08;;;;;;;1.90;0.33;;;5.50;99.90;;;;;;5094469;28;20408;-66
2021/03/23 04:14:34;;;;;;;1.90;0.30;;;5.50;99.90;;;;;;5093603;28;20168;-66
2021/03/23 04:16:59;;;;;;;1.95;0.40;;;5.60;99.90;;;;;;5093841;28;20745;-67
2021/03/23 04:19:27;;;;;;;1.90;0.40;;;5.50;99.90;;;;;;5094053;28;20172;-67
2021/03/23 04:21:52;;;;;;;1.90;0.40;;;5.50;99.90;;;;;;5094260;28;20626;-67
2021/03/23 04:24:18;;;;;;;1.80;0.20;;;5.50;99.90;;;;;;5093017;28;20183;-66
2021/03/23 04:26:44;;;;;;;1.90;0.30;;;5.60;99.90;;;;;;5093740;28;20442;-67
2021/03/23 04:29:10;;;;;;;1.90;0.40;;;5.60;99.90;;;;;;5093776;28;20769;-67
2021/03/23 04:31:43;;;;;;;1.90;0.30;;;5.60;99.90;;;;;;5093967;28;20318;-67
2021/03/23 04:34:10;;;;;;;2.58;1.50;;;5.60;99.90;;;;;;5093312;28;20208;-67
2021/03/23 04:36:36;;;;;;;4.95;1.20;;;5.60;99.90;;;;;;5093885;28;20187;-67
2021/03/23 04:39:08;;;;;;;1.90;0.30;;;5.70;99.90;;;;;;5093422;28;20668;-66
2021/03/23 04:41:35;;;;;;;1.90;0.30;;;5.60;99.90;;;;;;5094011;28;20176;-66
2021/03/23 04:44:00;;;;;;;1.90;0.40;;;5.60;99.90;;;;;;5093154;28;20542;-67
2021/03/23 04:46:27;;;;;;;1.90;0.40;;;5.60;99.90;;;;;;5093415;28;20228;-66
2021/03/23 04:48:54;;;;;;;1.90;0.40;;;5.60;99.90;;;;;;5093677;28;20297;-67
2021/03/23 04:51:22;;;;;;;1.90;0.30;;;5.50;99.90;;;;;;5093383;28;20207;-68
2021/03/23 04:53:48;;;;;;;2.30;0.85;;;5.50;99.90;;;;;;5091645;28;20229;-65
2021/03/23 04:56:34;;;;;;;1.90;0.40;;;5.60;99.90;;;;;;5093639;28;20192;-64
2021/03/23 04:59:00;;;;;;;1.83;0.30;;;5.50;99.90;;;;;;5105862;28;20310;-64
2021/03/23 05:01:26;;;;;;;1.90;0.30;;;5.50;99.90;;;;;;5073456;28;20204;-66
2021/03/23 05:03:57;;;;;;;1.90;0.30;;;5.50;99.90;;;;;;5093104;28;20463;-66
2021/03/23 05:06:24;;;;;;;1.90;0.40;;;5.60;99.90;;;;;;5093592;28;20581;-66
2021/03/23 05:08:50;;;;;;;1.90;0.30;;;5.60;99.90;;;;;;5092710;28;20180;-67
2021/03/23 05:11:18;;;;;;;1.90;0.30;;;5.50;99.90;;;;;;5092901;28;20670;-66
2021/03/23 05:13:44;;;;;;;3.45;1.15;;;5.50;99.90;;;;;;5093027;28;20180;-66
2021/03/23 05:16:10;;;;;;;2.00;0.50;;;5.60;99.90;;;;;;5093335;28;20727;-67
2021/03/23 05:18:36;;;;;;;1.90;0.40;;;5.60;99.90;;;;;;5092979;28;20463;-66
2021/03/23 05:21:03;;;;;;;1.90;0.30;;;5.50;99.90;;;;;;5093558;28;20176;-66
2021/03/23 05:23:28;;;;;;;1.92;0.50;;;5.50;99.90;;;;;;5091553;28;20258;-66
2021/03/23 05:25:54;;;;;;;2.40;1.13;;;5.50;99.90;;;;;;5092885;28;20664;-66
2021/03/23 05:28:20;;;;;;;1.90;0.60;;;5.50;99.90;;;;;;5093348;28;20172;-67
2021/03/23 05:30:46;;;;;;;1.80;0.20;;;5.50;99.90;;;;;;5093543;28;20199;-66
2021/03/23 05:33:12;;;;;;;3.20;1.05;;;5.50;99.90;;;;;;5093081;28;20410;-66
2021/03/23 05:35:39;;;;;;;1.90;0.70;;;5.40;99.90;;;;;;5091526;28;20269;-66
2021/03/23 05:38:05;;;;;;;1.80;0.40;;;5.50;99.90;;;;;;5088325;28;20178;-69
2021/03/23 05:40:38;;;;;;;1.70;0.43;;;5.50;99.90;;;;;;5092546;28;20714;-64
2021/03/23 05:43:25;;;;;;;1.70;0.40;;;5.50;99.90;;;;;;5092750;28;20247;-66
2021/03/23 05:46:00;;;;;;;1.65;0.40;;;5.50;99.90;;;;;;5092546;28;20726;-68
2021/03/23 05:48:29;;;;;;;1.70;0.30;;;5.50;99.90;;;;;;5092599;28;20171;-67
2021/03/23 05:51:07;;;;;;;2.95;2.15;;;5.50;99.90;;;;;;5091981;28;20260;-66
2021/03/23 05:53:47;;;;;;;1.80;0.57;;;5.50;99.90;;;;;;5092179;28;20251;-67
2021/03/23 05:56:15;;;;;;;1.60;0.30;;;5.50;99.90;;;;;;5092852;28;20234;-66
2021/03/23 05:58:46;;;;;;;2.67;1.23;;;5.50;99.90;;;;;;5092875;28;20172;-67
2021/03/23 06:01:38;;;;;;;1.60;0.30;;;5.50;99.90;;;;;;5093641;28;20256;-65
2021/03/23 06:04:13;;;;;;;1.60;0.40;;;5.60;99.90;;;;;;5091733;28;20192;-65
2021/03/23 06:06:59;;;;;;;1.50;0.30;;;5.60;99.90;;;;;;5092525;28;20191;-66
2021/03/23 06:09:34;;;;;;;1.60;0.40;;;5.70;99.90;;;;;;5072566;28;20187;-66
2021/03/23 06:12:16;;;;;;;1.90;0.93;;;5.70;99.90;;;;;;5075710;28;20169;-67
2021/03/23 06:14:48;;;;;;;1.55;0.40;;;5.70;99.90;;;;;;5092031;28;20178;-66
2021/03/23 06:17:36;;;;;;;1.60;0.50;;;5.80;99.90;;;;;;5092284;28;20203;-66
2021/03/23 06:20:22;;;;;;;1.50;0.30;;;5.80;99.90;;;;;;5092779;28;20164;-66
2021/03/23 06:23:09;;;;;;;1.60;0.38;;;5.80;99.90;;;;;;5094882;28;20575;-66
2021/03/23 06:25:39;;;;;;;1.58;0.40;;;5.80;99.90;;;;;;5082350;28;20623;-67
2021/03/23 06:28:28;;;;;;;1.52;0.30;;;5.80;99.90;;;;;;5083384;28;20650;-67
2021/03/23 06:31:07;;;;;;;1.90;0.95;;;5.90;99.90;;;;;;5094607;28;20200;-67
2021/03/23 06:33:33;;;;;;;1.55;0.30;;;5.90;99.90;;;;;;5089533;28;20217;-66
2021/03/23 06:36:10;;;;;;;2.40;2.00;;;5.90;99.90;;;;;;5094797;28;20201;-65
2021/03/23 06:38:41;;;;;;;1.60;0.40;;;6.00;99.90;;;;;;5095072;28;20192;-67
2021/03/23 06:41:18;;;;;;;1.65;0.40;;;6.10;99.90;;;;;;5095877;28;20172;-65
2021/03/23 06:44:10;;;;;;;1.98;0.73;;;6.10;99.90;;;;;;5095566;28;20183;-66
2021/03/23 06:46:36;;;;;;;2.22;1.38;;;6.10;99.90;;;;;;5095433;28;20199;-68
2021/03/23 06:49:25;;;;;;;1.77;0.40;;;6.20;99.90;;;;;;5095414;28;20228;-66
2021/03/23 06:51:54;;;;;;;1.77;0.40;;;6.20;99.90;;;;;;5094332;28;20199;-66
2021/03/23 06:54:24;;;;;;;1.80;0.55;;;6.30;99.90;;;;;;5095608;28;20260;-66
2021/03/23 06:57:13;;;;;;;1.80;0.32;;;6.30;99.90;;;;;;5095560;28;20582;-66
2021/03/23 07:00:04;;;;;;;1.90;0.40;;;6.30;99.90;;;;;;5095785;28;20209;-66
2021/03/23 07:02:36;;;;;;;2.53;0.70;;;6.40;99.90;;;;;;5095610;28;20541;-65
2021/03/23 07:05:21;;;;;;;1.90;0.40;;;6.50;99.90;;;;;;5094635;28;20207;-66
2021/03/23 07:07:57;;;;;;;1.95;0.40;;;6.50;99.90;;;;;;5079534;28;20187;-66
2021/03/23 07:10:33;;;;;;;2.00;0.40;;;6.50;99.90;;;;;;5095029;28;20241;-65
2021/03/23 07:12:59;;;;;;;2.00;0.40;;;6.60;99.90;;;;;;5095233;28;20179;-66
2021/03/23 07:15:30;;;;;;;2.10;0.40;;;6.70;99.90;;;;;;5094812;28;20670;-66
2021/03/23 07:17:59;;;;;;;2.10;0.40;;;6.80;99.90;;;;;;5095284;28;20193;-66
2021/03/23 07:20:33;;;;;;;2.10;0.40;;;6.90;99.90;;;;;;5094819;28;20584;-67
2021/03/23 07:23:03;;;;;;;2.17;0.50;;;6.90;99.90;;;;;;5095121;28;20177;-66
2021/03/23 07:25:37;;;;;;;2.30;0.57;;;6.90;99.90;;;;;;5094262;28;20197;-67
2021/03/23 07:28:11;;;;;;;2.17;0.40;;;7.00;99.90;;;;;;5095302;28;20605;-65
2021/03/23 07:30:40;;;;;;;2.30;0.50;;;7.00;99.90;;;;;;5094898;28;20192;-67
2021/03/23 07:33:14;;;;;;;2.30;0.40;;;7.10;99.90;;;;;;5094317;28;20165;-67
2021/03/23 07:35:43;;;;;;;2.25;0.40;;;7.10;99.90;;;;;;5094266;28;20680;-66
2021/03/23 07:38:18;;;;;;;2.35;0.57;;;7.10;99.90;;;;;;5094805;28;20183;-68
2021/03/23 07:40:49;;;;;;;2.30;0.30;;;7.10;99.90;;;;;;5093452;28;20698;-66
2021/03/23 07:43:38;;;;;;;2.50;0.80;;;7.10;99.90;;;;;;5095016;28;20179;-68
2021/03/23 07:46:12;;;;;;;5.90;3.00;;;7.20;99.90;;;;;;5093726;28;20609;-67
2021/03/23 07:48:45;;;;;;;7.05;1.40;;;7.20;99.90;;;;;;5094002;28;20563;-68
2021/03/23 07:51:30;;;;;;;3.33;0.70;;;7.20;99.90;;;;;;5093492;28;20188;-67
2021/03/23 07:54:15;;;;;;;2.50;0.30;;;7.30;99.90;;;;;;5094201;28;20181;-68
2021/03/23 07:57:08;;;;;;;2.50;0.30;;;7.30;99.90;;;;;;5074435;28;20195;-69
2021/03/23 07:59:56;;;;;;;2.85;1.02;;;7.40;99.90;;;;;;5073292;28;20165;-69
2021/03/23 08:02:24;;;;;;;2.70;0.40;;;7.50;99.90;;;;;;5081131;28;20190;-66
2021/03/23 08:04:59;;;;;;;3.33;1.80;;;7.40;99.90;;;;;;5094343;28;20186;-67
2021/03/23 08:07:30;;;;;;;2.70;0.40;;;7.40;99.90;;;;;;5092021;28;20165;-66
2021/03/23 08:10:36;;;;;;;2.67;0.30;;;7.60;99.90;;;;;;5094771;28;20199;-67
2021/03/23 08:13:11;;;;;;;2.97;0.77;;;7.80;99.90;;;;;;5032415;28;20180;-68
2021/03/23 08:16:01;;;;;;;3.00;0.75;;;8.00;99.90;;;;;;5086992;28;20214;-67
2021/03/23 08:18:45;;;;;;;3.55;0.95;;;8.10;99.90;;;;;;5094008;28;20271;-66
2021/03/23 08:21:21;;;;;;;3.05;0.30;;;8.20;99.90;;;;;;5094352;28;20171;-66
2021/03/23 08:24:05;;;;;;;3.10;0.30;;;8.30;99.90;;;;;;5093435;28;20164;-66
2021/03/23 08:27:08;;;;;;;3.15;0.30;;;8.40;99.90;;;;;;5093979;28;20202;-67
2021/03/23 08:29:43;;;;;;;3.22;0.40;;;8.50;99.90;;;;;;5094029;28;20164;-67
2021/03/23 08:32:12;;;;;;;3.30;0.40;;;8.60;99.90;;;;;;5094258;28;20174;-68
2021/03/23 08:35:01;;;;;;;3.60;1.02;;;8.70;99.90;;;;;;5093655;28;20527;-67
2021/03/23 08:37:34;;;;;;;4.88;2.55;;;8.70;99.90;;;;;;5063491;28;20180;-67
2021/03/23 08:40:25;;;;;;;4.25;1.40;;;8.80;99.90;;;;;;5093710;28;20200;-65
2021/03/23 08:42:51;;;;;;;3.42;0.30;;;8.90;99.90;;;;;;5094019;28;20203;-66
2021/03/23 08:45:29;;;;;;;3.53;0.40;;;8.90;99.90;;;;;;5092316;28;20192;-66
2021/03/23 08:48:00;;;;;;;3.60;0.40;;;8.80;99.90;;;;;;5093541;28;20426;-66
2021/03/23 08:50:34;;;;;;;4.90;0.82;;;8.90;99.90;;;;;;5093308;28;20554;-66
2021/03/23 08:53:01;;;;;;;3.70;0.40;;;9.00;99.90;;;;;;5073822;28;20165;-67
2021/03/23 08:55:27;;;;;;;3.70;0.40;;;9.10;99.90;;;;;;5083043;28;20194;-65
2021/03/23 08:58:39;;;;;;;4.43;1.30;;;9.10;99.90;;;;;;5093168;28;20172;-65
2021/03/23 09:01:25;;;;;;;3.80;0.50;;;9.20;99.90;;;;;;5080768;28;20191;-65
2021/03/23 09:03:53;;;;;;;4.20;1.15;;;9.20;99.90;;;;;;5081115;28;20368;-65
2021/03/23 09:06:24;;;;;;;3.80;0.40;;;9.00;99.90;;;;;;5093413;28;20203;-65
2021/03/23 09:09:14;;;;;;;3.80;0.40;;;9.10;99.90;;;;;;5093729;28;20172;-67
2021/03/23 09:11:52;;;;;;;3.80;0.50;;;9.30;99.90;;;;;;5082362;28;20212;-66
2021/03/23 09:14:22;;;;;;;3.78;0.40;;;9.50;99.90;;;;;;5091903;28;20178;-65
2021/03/23 09:16:57;;;;;;;3.80;0.50;;;9.70;99.90;;;;;;5093057;28;20192;-67
2021/03/23 09:19:45;;;;;;;3.80;0.40;;;9.80;99.90;;;;;;5093402;28;20225;-66
2021/03/23 09:22:29;;;;;;;4.95;1.30;;;10.00;99.90;;;;;;5093637;28;20649;-66
2021/03/23 09:25:17;;;;;;;3.65;0.43;;;10.10;99.90;;;;;;5092985;28;20172;-68
2021/03/23 09:27:49;;;;;;;3.67;0.40;;;10.20;99.90;;;;;;5093347;28;20519;-65
2021/03/23 09:30:45;;;;;;;3.63;0.52;;;10.30;99.90;;;;;;5093538;28;20187;-66
2021/03/23 09:33:24;;;;;;;3.55;0.40;;;10.30;99.90;;;;;;5092907;28;20208;-65
2021/03/23 09:36:07;;;;;;;3.60;0.40;;;10.30;99.90;;;;;;5092879;28;20278;-65
2021/03/23 09:38:43;;;;;;;4.00;0.93;;;10.30;99.90;;;;;;5093266;28;20177;-68
2021/03/23 09:41:28;;;;;;;5.85;1.15;;;10.40;99.80;;;;;;5091225;28;20219;-66
2021/03/23 09:44:17;;;;;;;3.60;0.57;;;10.40;99.20;;;;;;5092027;28;20178;-67
2021/03/23 09:46:52;;;;;;;3.60;0.60;;;10.60;99.50;;;;;;5092864;28;20302;-69
2021/03/23 09:49:26;;;;;;;3.50;0.40;;;10.80;98.80;;;;;;5092976;28;20225;-66
2021/03/23 09:52:04;;;;;;;3.53;0.30;;;11.00;98.50;;;;;;5092845;28;20180;-67
2021/03/23 09:54:34;;;;;;;3.55;0.40;;;11.00;97.60;;;;;;5092619;28;20270;-66
2021/03/23 09:57:12;;;;;;;3.70;0.50;;;11.10;96.80;;;;;;5095789;28;20196;-68
2021/03/23 09:59:47;;;;;;;3.70;0.40;;;11.30;96.50;;;;;;5096985;28;20398;-67
2021/03/23 10:02:19;;;;;;;3.67;0.30;;;11.50;95.30;;;;;;5077145;28;21003;-67
2021/03/23 10:04:46;;;;;;;3.70;0.40;;;11.50;94.40;;;;;;5086232;28;20414;-67
2021/03/23 10:07:40;;;;;;;3.77;0.40;;;11.40;93.50;;;;;;5096616;28;20476;-66
2021/03/23 10:10:22;;;;;;;3.80;0.40;;;11.20;94.50;;;;;;5088723;28;20454;-67
2021/03/23 10:12:47;;;;;;;3.90;0.67;;;11.10;94.50;;;;;;5096572;28;20403;-69
2021/03/23 10:15:35;;;;;;;3.97;0.60;;;11.20;94.30;;;;;;5096067;28;20854;-69
2021/03/23 10:18:16;;;;;;;3.80;0.30;;;11.10;93.90;;;;;;5095984;28;20587;-68
2021/03/23 10:20:46;;;;;;;3.90;0.80;;;11.10;94.00;;;;;;5096373;28;20411;-71
2021/03/23 10:23:12;;;;;;;3.80;0.50;;;11.00;94.00;;;;;;5096600;28;20507;-70
2021/03/23 10:25:42;;;;;;;5.33;1.20;;;11.10;94.00;;;;;;5095284;28;20516;-70
2021/03/23 10:28:08;;;;;;;3.73;0.30;;;10.90;93.20;;;;;;5096519;28;20231;-68
2021/03/23 10:30:38;;;;;;;3.83;0.67;;;10.90;94.00;;;;;;5095942;28;20463;-70
2021/03/23 10:33:22;;;;;;;3.80;0.30;;;11.10;93.90;;;;;;5096254;28;20166;-67
2021/03/23 10:35:50;;;;;;;3.78;0.40;;;11.20;93.70;;;;;;5095836;28;20423;-65
2021/03/23 10:38:27;;;;;;;4.00;0.90;;;11.10;94.30;;;;;;5096236;28;20195;-67
2021/03/23 10:40:59;;;;;;;3.80;0.40;;;11.10;93.70;;;;;;5095531;28;20438;-69
2021/03/23 10:43:30;;;;;;;3.80;0.30;;;11.10;93.80;;;;;;5096334;28;20410;-67
2021/03/23 10:45:58;;;;;;;4.00;0.65;;;11.10;94.00;;;;;;5095586;28;20426;-68
2021/03/23 10:48:28;;;;;;;3.77;0.40;;;11.00;93.80;;;;;;5094714;28;20184;-65
2021/03/23 10:51:15;;;;;;;4.63;1.02;;;11.00;94.10;;;;;;5096035;28;20458;-67
2021/03/23 10:53:57;;;;;;;3.80;0.40;;;11.00;93.70;;;;;;5094762;28;20173;-68
2021/03/23 10:56:32;;;;;;;4.10;0.93;;;10.80;94.10;;;;;;5095004;28;20195;-71
2021/03/23 10:59:09;;;;;;;3.85;0.50;;;10.80;94.20;;;;;;5095490;28;20175;-67
2021/03/23 11:01:35;;;;;;;3.80;0.40;;;10.50;94.70;;;;;;5095069;28;20175;-68
2021/03/23 11:04:18;;;;;;;3.87;0.60;;;10.20;94.60;;;;;;5094967;28;20176;-66
2021/03/23 11:06:43;;;;;;;3.80;0.40;;;10.00;94.90;;;;;;5095064;28;20480;-68
2021/03/23 11:09:15;;;;;;;4.00;0.70;;;9.90;95.20;;;;;;5094477;28;20211;-66
2021/03/23 11:11:41;;;;;;;4.00;0.80;;;9.70;95.50;;;;;;5094913;28;20227;-66
2021/03/23 11:14:07;;;;;;;3.73;0.40;;;9.70;96.20;;;;;;5093192;28;20207;-68
2021/03/23 11:16:35;;;;;;;3.73;0.40;;;9.60;95.90;;;;;;5094444;28;20196;-67
2021/03/23 11:19:02;;;;;;;3.80;0.40;;;9.70;95.40;;;;;;5094771;28;20186;-67
2021/03/23 11:21:33;;;;;;;4.20;0.77;;;9.80;94.80;;;;;;5095140;28;20193;-68
2021/03/23 11:23:59;;;;;;;4.90;1.02;;;9.90;94.70;;;;;;5093097;28;20658;-67
2021/03/23 11:26:28;;;;;;;3.77;0.50;;;9.90;94.80;;;;;;5095240;28;20231;-67
2021/03/23 11:29:03;;;;;;;3.70;0.30;;;9.90;95.00;;;;;;5094459;28;20229;-68
2021/03/23 11:31:31;;;;;;;3.78;0.52;;;10.00;94.90;;;;;;5093600;28;20226;-68
2021/03/23 11:33:59;;;;;;;3.80;0.55;;;10.00;94.50;;;;;;5094313;28;20180;-68
2021/03/23 11:36:26;;;;;;;3.75;0.30;;;10.00;93.90;;;;;;5094305;28;20192;-67
2021/03/23 11:38:52;;;;;;;3.72;0.40;;;10.00;93.80;;;;;;5093041;28;20175;-69
2021/03/23 11:41:20;;;;;;;3.90;0.60;;;10.00;93.60;;;;;;5093452;28;20176;-69
2021/03/23 11:43:50;;;;;;;4.40;0.73;;;10.10;93.60;;;;;;5093893;28;20176;-68
2021/03/23 11:46:22;;;;;;;3.80;0.40;;;10.20;94.00;;;;;;5094719;28;20202;-69
2021/03/23 11:48:54;;;;;;;7.05;1.08;;;10.10;93.40;;;;;;5094468;28;20187;-68
2021/03/23 11:51:22;;;;;;;3.80;0.40;;;10.20;93.60;;;;;;5095096;28;20187;-65
2021/03/23 11:53:51;;;;;;;3.75;0.40;;;10.10;93.40;;;;;;5094519;28;20247;-66
2021/03/23 11:56:17;;;;;;;3.80;0.40;;;10.10;92.60;;;;;;5094235;28;20199;-68
2021/03/23 11:58:44;;;;;;;3.78;0.30;;;10.10;93.10;;;;;;5093046;28;20211;-66
2021/03/23 12:01:10;;;;;;;3.80;0.40;;;9.90;95.00;;;;;;5093792;28;20213;-68
2021/03/23 12:03:36;;;;;;;3.78;0.40;;;9.80;95.50;;;;;;5094406;28;20222;-70
2021/03/23 12:06:02;;;;;;;4.20;0.97;;;9.70;95.90;;;;;;5092304;28;20199;-67
2021/03/23 12:08:43;;;;;;;3.80;0.40;;;9.80;96.00;;;;;;5094306;28;20958;-68
2021/03/23 12:11:33;;;;;;;3.70;0.30;;;9.80;96.40;;;;;;5094296;28;20450;-68
2021/03/23 12:14:25;;;;;;;4.53;1.30;;;9.80;96.20;;;;;;5092679;28;20187;-70
2021/03/23 12:17:03;;;;;;;3.78;0.40;;;9.90;96.10;;;;;;5094376;28;20216;-68
2021/03/23 12:19:35;;;;;;;3.67;0.40;;;9.80;95.50;;;;;;5093312;28;20247;-68
2021/03/23 12:22:01;;;;;;;4.75;1.67;;;9.90;96.00;;;;;;5094272;28;20164;-64
2021/03/23 12:24:27;;;;;;;3.80;0.40;;;10.10;94.90;;;;;;5093544;28;20538;-68
2021/03/23 12:26:53;;;;;;;3.83;0.50;;;10.20;94.10;;;;;;5094217;28;20196;-65
2021/03/23 12:29:22;;;;;;;4.18;1.25;;;10.30;94.20;;;;;;5094122;28;20912;-67
2021/03/23 12:31:49;;;;;;;3.75;0.40;;;10.30;94.50;;;;;;5093954;28;20195;-68
2021/03/23 12:34:15;;;;;;;3.80;0.40;;;10.20;94.50;;;;;;5093738;28;20160;-69
2021/03/23 12:36:42;;;;;;;3.78;0.40;;;10.20;94.60;;;;;;5093607;28;20562;-67
2021/03/23 12:39:09;;;;;;;4.43;1.10;;;10.30;94.30;;;;;;5093446;28;20709;-69
2021/03/23 12:41:36;;;;;;;3.80;0.30;;;10.40;94.00;;;;;;5093802;28;20176;-70
2021/03/23 12:44:03;;;;;;;3.90;0.50;;;10.50;94.40;;;;;;5093119;28;20184;-69
2021/03/23 12:46:30;;;;;;;3.80;0.40;;;10.50;93.90;;;;;;5093664;28;20649;-71
2021/03/23 12:48:55;;;;;;;4.40;1.63;;;10.50;93.80;;;;;;5093105;28;20180;-70
2021/03/23 12:51:25;;;;;;;3.87;0.50;;;10.60;94.00;;;;;;5093565;28;20237;-68
2021/03/23 12:53:51;;;;;;;3.80;0.45;;;10.70;94.30;;;;;;5092782;28;20291;-70
2021/03/23 12:56:20;;;;;;;3.80;0.40;;;10.70;94.20;;;;;;5093579;28;20192;-69
2021/03/23 12:58:46;;;;;;;3.80;0.40;;;10.70;94.20;;;;;;5093600;28;20172;-70
2021/03/23 13:01:13;;;;;;;3.80;0.30;;;10.60;93.90;;;;;;5093553;28;20171;-67
2021/03/23 13:03:38;;;;;;;3.78;0.40;;;10.60;94.00;;;;;;5093695;28;20199;-67
2021/03/23 13:06:06;;;;;;;3.87;0.60;;;10.60;93.90;;;;;;5091828;28;20344;-68
2021/03/23 13:08:34;;;;;;;3.90;0.70;;;10.50;93.70;;;;;;5093138;28;20171;-64
2021/03/23 13:11:25;;;;;;;3.80;0.50;;;10.50;94.60;;;;;;5093403;28;20677;-67
2021/03/23 13:13:59;;;;;;;3.80;0.40;;;10.30;93.80;;;;;;5092885;28;20179;-65
2021/03/23 13:16:25;;;;;;;3.78;0.40;;;10.30;94.20;;;;;;5093188;28;20635;-65
2021/03/23 13:18:53;;;;;;;3.78;0.30;;;10.20;93.90;;;;;;5093184;28;20241;-69